createdAt,value
2022-11-30T00:00:40.724Z,36.89
2022-11-30T00:03:08.448Z,37.36
2022-11-30T00:05:35.043Z,37.48
2022-11-30T00:08:01.656Z,37.22
2022-11-30T00:10:28.136Z,37.27
2022-11-30T00:12:54.615Z,37.65
2022-11-30T00:15:21.166Z,37.36
2022-11-30T00:17:47.790Z,37.35
2022-11-30T00:20:14.765Z,37.57
2022-11-30T00:22:41.630Z,37.65
2022-11-30T00:25:08.232Z,37.58
2022-11-30T00:27:34.729Z,37.28
2022-11-30T00:30:02.251Z,37.42
2022-11-30T00:32:28.840Z,37.41
2022-11-30T00:34:55.426Z,37.48
2022-11-30T00:37:21.952Z,37.68
2022-11-30T00:39:48.466Z,37.50
2022-11-30T00:42:15.278Z,37.81
2022-11-30T00:44:41.728Z,37.72
2022-11-30T00:47:08.174Z,37.44
2022-11-30T00:49:34.632Z,37.36
2022-11-30T00:52:01.777Z,37.70
2022-11-30T00:54:28.492Z,37.81
2022-11-30T00:56:54.993Z,37.82
2022-11-30T00:59:21.463Z,37.81
2022-11-30T01:01:48.088Z,37.48
2022-11-30T01:04:14.602Z,37.45
2022-11-30T01:06:41.086Z,37.86
2022-11-30T01:09:07.571Z,37.60
2022-11-30T01:11:34.008Z,37.49
2022-11-30T01:14:00.865Z,37.81
2022-11-30T01:16:29.614Z,37.79
2022-11-30T01:18:56.128Z,37.59
2022-11-30T01:21:24.638Z,37.89
2022-11-30T01:23:51.297Z,37.68
2022-11-30T01:26:17.826Z,37.69
2022-11-30T01:28:44.498Z,37.79
2022-11-30T01:31:12.854Z,37.99
2022-11-30T01:33:39.672Z,37.92
2022-11-30T01:36:07.093Z,37.69
2022-11-30T01:38:34.869Z,37.75
2022-11-30T01:41:01.992Z,37.97
2022-11-30T01:43:47.960Z,38.01
2022-11-30T01:46:21.507Z,37.77
2022-11-30T01:48:49.349Z,38.05
2022-11-30T01:51:15.798Z,37.79
2022-11-30T01:53:42.251Z,37.77
2022-11-30T01:56:08.710Z,37.97
2022-11-30T01:58:36.564Z,37.87
2022-11-30T02:01:03.961Z,37.61
2022-11-30T02:03:41.449Z,37.96
2022-11-30T02:06:08.282Z,37.69
2022-11-30T02:08:34.967Z,37.84
2022-11-30T02:11:04.310Z,37.64
2022-11-30T02:13:52.685Z,37.99
2022-11-30T02:16:27.335Z,38.04
2022-11-30T02:18:59.282Z,37.64
2022-11-30T02:21:40.894Z,38.16
2022-11-30T02:29:14.314Z,38.14
2022-11-30T02:31:55.879Z,37.77
2022-11-30T02:34:22.633Z,37.71
2022-11-30T02:36:49.105Z,37.88
2022-11-30T02:39:16.952Z,38.08
2022-11-30T02:41:43.694Z,38.20
2022-11-30T02:44:10.516Z,37.84
2022-11-30T02:47:28.306Z,37.95
2022-11-30T02:50:15.597Z,37.90
2022-11-30T02:52:42.050Z,37.94
2022-11-30T02:55:09.971Z,38.23
2022-11-30T02:57:36.458Z,38.07
2022-11-30T03:00:08.605Z,38.02
2022-11-30T03:02:35.215Z,38.12
2022-11-30T03:05:01.740Z,38.29
2022-11-30T03:07:28.276Z,38.00
2022-11-30T03:09:54.778Z,38.12
2022-11-30T03:12:21.281Z,37.94
2022-11-30T03:14:48.062Z,38.02
2022-11-30T03:17:14.672Z,38.19
2022-11-30T03:19:41.134Z,38.15
2022-11-30T03:22:07.589Z,37.91
2022-11-30T03:24:34.056Z,38.07
2022-11-30T03:27:00.542Z,37.92
2022-11-30T03:29:27.110Z,38.30
2022-11-30T03:31:53.573Z,38.17
2022-11-30T03:34:20.046Z,38.14
2022-11-30T03:36:46.491Z,38.15
2022-11-30T03:39:13.198Z,38.16
2022-11-30T03:41:39.808Z,37.92
2022-11-30T03:44:06.263Z,38.15
2022-11-30T03:46:34.057Z,38.04
2022-11-30T03:49:00.723Z,38.05
2022-11-30T03:51:27.267Z,38.17
2022-11-30T03:53:53.718Z,38.05
2022-11-30T03:56:20.798Z,37.98
2022-11-30T03:58:47.264Z,37.98
2022-11-30T04:01:15.638Z,38.06
2022-11-30T04:03:42.301Z,38.17
2022-11-30T04:06:09.609Z,38.15
2022-11-30T04:08:36.570Z,38.07
2022-11-30T04:11:03.651Z,38.28
2022-11-30T04:13:30.278Z,38.45
2022-11-30T04:15:56.838Z,38.20
2022-11-30T04:18:24.231Z,38.36
2022-11-30T04:20:52.215Z,38.50
2022-11-30T04:23:19.096Z,38.47
2022-11-30T04:25:45.845Z,38.36
2022-11-30T04:28:12.283Z,38.51
2022-11-30T04:30:38.976Z,38.57
2022-11-30T04:33:05.451Z,38.38
2022-11-30T04:35:32.571Z,38.34
2022-11-30T04:37:59.316Z,38.52
2022-11-30T04:40:25.757Z,38.48
2022-11-30T04:42:52.579Z,38.56
2022-11-30T04:45:19.032Z,38.62
2022-11-30T04:47:45.472Z,38.50
2022-11-30T04:50:11.922Z,38.58
2022-11-30T04:52:38.389Z,38.63
2022-11-30T04:55:05.237Z,38.31
2022-11-30T04:57:32.414Z,38.57
2022-11-30T04:59:58.872Z,38.50
2022-11-30T05:02:25.331Z,38.39
2022-11-30T05:04:52.108Z,38.54
2022-11-30T05:07:18.731Z,38.62
2022-11-30T05:09:45.246Z,38.59
2022-11-30T05:12:11.700Z,38.63
2022-11-30T05:14:38.278Z,38.27
2022-11-30T05:17:04.727Z,38.51
2022-11-30T05:19:31.168Z,38.42
2022-11-30T05:21:57.637Z,38.41
2022-11-30T05:24:24.316Z,38.44
2022-11-30T05:26:50.760Z,38.62
2022-11-30T05:29:17.201Z,38.35
2022-11-30T05:31:43.735Z,38.46
2022-11-30T05:34:10.702Z,38.36
2022-11-30T05:36:37.151Z,38.28
2022-11-30T05:39:03.683Z,38.39
2022-11-30T05:41:30.139Z,38.49
2022-11-30T05:43:56.745Z,38.67
2022-11-30T05:46:23.249Z,38.49
2022-11-30T05:48:49.794Z,38.67
2022-11-30T05:51:17.462Z,38.57
2022-11-30T05:53:44.905Z,38.57
2022-11-30T05:56:13.438Z,38.47
2022-11-30T05:58:40.036Z,38.39
2022-11-30T06:01:06.591Z,38.61
2022-11-30T06:03:33.870Z,38.58
2022-11-30T06:06:00.377Z,38.67
2022-11-30T06:08:26.882Z,38.61
2022-11-30T06:10:53.612Z,38.80
2022-11-30T06:13:24.681Z,38.49
2022-11-30T06:15:53.944Z,38.30
2022-11-30T06:18:20.394Z,38.58
2022-11-30T06:20:46.890Z,38.58
2022-11-30T06:23:13.338Z,38.60
2022-11-30T06:25:39.790Z,38.61
2022-11-30T06:28:09.312Z,38.57
2022-11-30T06:30:35.788Z,38.27
2022-11-30T06:33:02.235Z,38.68
2022-11-30T06:35:28.764Z,38.50
2022-11-30T06:37:55.213Z,38.51
2022-11-30T06:40:21.706Z,38.53
2022-11-30T06:42:48.515Z,38.31
2022-11-30T06:45:15.008Z,38.56
2022-11-30T06:47:41.588Z,38.44
2022-11-30T06:50:08.483Z,38.63
2022-11-30T06:52:35.080Z,38.54
2022-11-30T06:55:01.587Z,38.48
2022-11-30T06:57:28.418Z,38.56
2022-11-30T06:59:55.250Z,38.51
2022-11-30T07:02:21.706Z,38.52
2022-11-30T07:04:48.383Z,38.35
2022-11-30T07:07:15.180Z,38.35
2022-11-30T07:09:41.646Z,38.43
2022-11-30T07:12:08.254Z,38.41
2022-11-30T07:14:34.749Z,38.53
2022-11-30T07:17:04.552Z,38.49
2022-11-30T07:19:31.647Z,38.47
2022-11-30T07:21:58.100Z,38.45
2022-11-30T07:24:43.057Z,38.50
2022-11-30T07:27:09.960Z,38.45
2022-11-30T07:29:36.444Z,38.29
2022-11-30T07:32:02.929Z,38.54
2022-11-30T07:34:29.446Z,38.50
2022-11-30T07:36:55.910Z,38.64
2022-11-30T07:39:23.499Z,38.47
2022-11-30T07:41:49.990Z,38.44
2022-11-30T07:44:16.472Z,38.27
2022-11-30T07:46:42.956Z,38.37
2022-11-30T07:49:09.763Z,38.11
2022-11-30T07:51:36.573Z,38.30
2022-11-30T07:54:03.063Z,38.02
2022-11-30T07:56:29.618Z,38.21
2022-11-30T07:58:57.688Z,38.37
2022-11-30T08:01:26.533Z,38.17
2022-11-30T08:03:53.222Z,38.39
2022-11-30T08:06:21.141Z,38.24
2022-11-30T08:08:48.699Z,38.28
2022-11-30T08:11:16.820Z,38.24
2022-11-30T08:13:43.364Z,38.43
2022-11-30T08:16:12.351Z,38.22
2022-11-30T08:18:39.328Z,38.61
2022-11-30T08:21:06.570Z,39.02
2022-11-30T08:23:34.771Z,38.59
2022-11-30T08:26:06.554Z,38.72
2022-11-30T08:28:35.998Z,38.78
2022-11-30T08:31:04.030Z,38.87
2022-11-30T08:33:31.240Z,39.00
2022-11-30T08:36:10.417Z,39.19
2022-11-30T08:38:36.900Z,38.99
2022-11-30T08:41:03.866Z,39.21
2022-11-30T08:43:30.470Z,39.14
2022-11-30T08:45:57.349Z,39.23
2022-11-30T08:48:24.224Z,39.06
2022-11-30T08:50:50.938Z,39.11
2022-11-30T08:53:17.418Z,39.05
2022-11-30T08:55:43.902Z,38.80
2022-11-30T08:58:10.362Z,38.89
2022-11-30T09:00:36.799Z,38.95
2022-11-30T09:03:03.315Z,38.89
2022-11-30T09:05:29.798Z,38.93
2022-11-30T09:07:56.287Z,39.16
2022-11-30T09:10:22.794Z,39.09
2022-11-30T09:12:49.266Z,38.96
2022-11-30T09:15:15.742Z,38.92
2022-11-30T09:17:42.218Z,38.72
2022-11-30T09:20:09.239Z,38.78
2022-11-30T09:22:35.728Z,38.89
2022-11-30T09:25:02.204Z,39.01
2022-11-30T09:27:31.875Z,38.82
2022-11-30T09:29:58.334Z,38.83
2022-11-30T09:32:24.837Z,38.91
2022-11-30T09:34:51.513Z,38.96
2022-11-30T09:37:18.167Z,38.97
2022-11-30T09:39:44.606Z,38.81
2022-11-30T09:42:40.474Z,38.87
2022-11-30T09:45:12.842Z,39.08
2022-11-30T09:47:51.780Z,39.09
2022-11-30T09:50:22.891Z,38.85
2022-11-30T09:52:54.728Z,38.96
2022-11-30T09:55:26.878Z,38.96
2022-11-30T09:57:55.158Z,38.80
2022-11-30T10:00:22.994Z,38.87
2022-11-30T10:02:50.417Z,38.99
2022-11-30T10:05:19.581Z,38.78
2022-11-30T10:08:05.000Z,38.86
2022-11-30T10:10:42.086Z,38.76
2022-11-30T10:13:23.750Z,38.72
2022-11-30T10:16:27.809Z,38.86
2022-11-30T10:19:16.496Z,38.78
2022-11-30T10:22:27.149Z,38.81
2022-11-30T10:25:24.782Z,38.81
2022-11-30T10:27:55.122Z,38.79
2022-11-30T10:30:25.516Z,38.71
2022-11-30T10:32:54.052Z,38.81
2022-11-30T10:35:39.565Z,38.85
2022-11-30T10:38:20.154Z,38.90
2022-11-30T10:40:55.850Z,38.65
2022-11-30T10:43:34.025Z,38.84
2022-11-30T10:46:00.801Z,38.97
2022-11-30T10:48:29.910Z,38.87
2022-11-30T10:50:57.094Z,38.87
2022-11-30T10:53:23.556Z,39.06
2022-11-30T10:56:04.616Z,39.02
2022-11-30T10:58:45.290Z,39.13
2022-11-30T11:01:29.730Z,39.08
2022-11-30T11:04:09.616Z,38.98
2022-11-30T11:06:36.362Z,39.08
2022-11-30T11:09:38.436Z,39.05
2022-11-30T11:12:05.865Z,39.17
2022-11-30T11:14:37.695Z,39.10
2022-11-30T11:17:26.408Z,39.22
2022-11-30T11:19:53.059Z,39.01
2022-11-30T11:22:26.653Z,39.15
2022-11-30T11:25:19.911Z,39.20
2022-11-30T11:28:10.517Z,39.10
2022-11-30T11:30:37.310Z,39.04
2022-11-30T11:33:15.680Z,39.18
2022-11-30T11:35:46.657Z,39.05
2022-11-30T11:38:28.832Z,39.24
2022-11-30T11:40:58.014Z,39.13
2022-11-30T11:43:25.840Z,39.07
2022-11-30T11:45:54.227Z,39.21
2022-11-30T11:48:46.358Z,39.24
2022-11-30T11:51:13.972Z,39.25
2022-11-30T11:53:51.373Z,39.17
2022-11-30T11:56:31.914Z,39.26
2022-11-30T11:59:11.089Z,39.27
2022-11-30T12:01:43.554Z,39.24
2022-11-30T12:04:54.530Z,39.24
2022-11-30T12:07:36.683Z,39.22
2022-11-30T12:10:43.233Z,39.18
2022-11-30T12:12:59.010Z,39.22
2022-11-30T12:15:35.839Z,39.13
2022-11-30T12:18:23.557Z,39.14
2022-11-30T12:21:00.593Z,38.90
2022-11-30T12:23:49.315Z,39.09
2022-11-30T12:26:40.705Z,39.04
2022-11-30T12:29:23.715Z,39.21
2022-11-30T12:31:56.114Z,39.30
2022-11-30T12:34:42.721Z,38.83
2022-11-30T12:37:48.634Z,38.64
2022-11-30T12:40:21.406Z,38.54
2022-11-30T12:43:04.590Z,38.44
2022-11-30T12:45:42.146Z,38.50
2022-11-30T12:48:27.328Z,38.40
2022-11-30T12:50:59.814Z,38.68
2022-11-30T12:53:34.176Z,38.69
2022-11-30T12:56:22.393Z,38.70
2022-11-30T12:59:43.367Z,38.69
2022-11-30T13:02:31.471Z,38.41
2022-11-30T13:05:21.261Z,38.33
2022-11-30T13:08:21.865Z,38.05
2022-11-30T13:10:50.359Z,38.22
2022-11-30T13:13:19.111Z,38.37
2022-11-30T13:15:46.765Z,38.25
2022-11-30T13:18:18.360Z,38.42
2022-11-30T13:21:07.131Z,38.03
2022-11-30T13:23:46.446Z,38.12
2022-11-30T13:26:31.092Z,38.07
2022-11-30T13:29:21.760Z,38.25
2022-11-30T13:31:52.697Z,38.30
2022-11-30T13:34:29.021Z,38.26
2022-11-30T13:37:17.427Z,38.13
2022-11-30T13:39:50.713Z,38.78
2022-11-30T13:42:39.123Z,38.03
2022-11-30T13:45:14.336Z,38.22
2022-11-30T13:47:43.104Z,38.58
2022-11-30T13:50:18.556Z,38.19
2022-11-30T13:53:00.502Z,38.34
2022-11-30T13:55:36.164Z,38.46
2022-11-30T13:58:05.742Z,38.84
2022-11-30T14:00:32.090Z,38.66
2022-11-30T14:03:17.376Z,38.72
2022-11-30T14:05:46.181Z,38.64
2022-11-30T14:08:21.748Z,38.56
2022-11-30T14:10:55.076Z,38.26
2022-11-30T14:13:22.754Z,38.40
2022-11-30T14:15:54.206Z,38.15
2022-11-30T14:18:38.896Z,38.18
2022-11-30T14:21:26.715Z,38.08
2022-11-30T14:23:58.053Z,37.63
2022-11-30T14:26:35.561Z,38.03
2022-11-30T14:29:08.105Z,38.09
2022-11-30T14:31:41.759Z,38.03
2022-11-30T14:34:28.935Z,38.09
2022-11-30T14:36:58.164Z,37.95
2022-11-30T14:39:26.605Z,38.30
2022-11-30T14:41:53.405Z,38.44
2022-11-30T14:44:19.860Z,38.60
2022-11-30T14:46:46.341Z,38.76
2022-11-30T14:49:20.881Z,38.92
2022-11-30T14:51:49.968Z,39.32
2022-11-30T14:54:22.271Z,39.39
2022-11-30T14:56:49.655Z,39.33
2022-11-30T14:59:37.314Z,39.13
2022-11-30T15:02:05.341Z,39.28
2022-11-30T15:04:31.897Z,39.71
2022-11-30T15:06:58.599Z,39.84
2022-11-30T15:09:27.640Z,39.99
2022-11-30T15:11:54.158Z,40.08
2022-11-30T15:14:20.684Z,40.11
2022-11-30T15:16:48.561Z,40.22
2022-11-30T15:19:25.951Z,40.38
2022-11-30T15:21:52.820Z,40.28
2022-11-30T15:24:19.469Z,39.70
2022-11-30T15:27:10.992Z,39.88
2022-11-30T15:29:42.781Z,39.92
2022-11-30T15:32:15.886Z,39.66
2022-11-30T15:34:54.884Z,39.56
2022-11-30T15:37:33.754Z,39.46
2022-11-30T15:40:01.184Z,39.54
2022-11-30T15:42:40.095Z,39.78
2022-11-30T15:45:22.754Z,39.44
2022-11-30T15:47:49.543Z,39.70
2022-11-30T15:50:31.143Z,39.54
2022-11-30T15:53:02.521Z,39.59
2022-11-30T15:55:41.050Z,39.57
2022-11-30T15:58:45.563Z,39.19
2022-11-30T16:01:18.768Z,39.50
2022-11-30T16:04:08.545Z,39.42
2022-11-30T16:06:35.854Z,39.58
2022-11-30T16:09:05.757Z,39.58
2022-11-30T16:11:33.378Z,39.32
2022-11-30T16:13:59.825Z,39.70
2022-11-30T16:16:30.326Z,39.35
2022-11-30T16:18:56.853Z,39.58
2022-11-30T16:21:23.565Z,39.62
2022-11-30T16:23:56.589Z,39.48
2022-11-30T16:26:43.502Z,39.50
2022-11-30T16:29:09.544Z,39.35
2022-11-30T16:31:37.251Z,39.22
2022-11-30T16:34:03.754Z,39.57
2022-11-30T16:36:30.564Z,40.62
2022-11-30T16:38:57.728Z,40.40
2022-11-30T16:41:25.328Z,40.17
2022-11-30T16:43:53.264Z,40.01
2022-11-30T16:46:29.103Z,40.54
2022-11-30T16:48:55.678Z,40.28
2022-11-30T16:51:25.733Z,39.64
2022-11-30T16:53:52.332Z,39.82
2022-11-30T16:56:18.890Z,39.38
2022-11-30T16:58:45.401Z,39.20
2022-11-30T17:01:22.934Z,39.37
2022-11-30T17:03:50.752Z,38.84
2022-11-30T17:06:19.722Z,38.58
2022-11-30T17:08:46.628Z,38.42
2022-11-30T17:11:18.369Z,38.59
2022-11-30T17:13:44.963Z,38.21
2022-11-30T17:16:11.605Z,38.50
2022-11-30T17:18:38.437Z,38.88
2022-11-30T17:21:04.977Z,38.94
2022-11-30T17:23:31.424Z,39.83
2022-11-30T17:25:57.884Z,39.22
2022-11-30T17:28:24.384Z,38.94
2022-11-30T17:30:50.926Z,38.77
2022-11-30T17:33:17.406Z,38.97
2022-11-30T17:35:43.872Z,38.70
2022-11-30T17:38:10.479Z,38.38
2022-11-30T17:40:41.765Z,38.42
2022-11-30T17:43:08.637Z,38.42
2022-11-30T17:45:39.097Z,38.28
2022-11-30T17:48:05.708Z,38.03
2022-11-30T17:50:32.182Z,38.44
2022-11-30T17:52:58.671Z,38.83
2022-11-30T17:55:25.158Z,38.84
2022-11-30T17:57:51.660Z,38.88
2022-11-30T18:00:18.715Z,39.00
2022-11-30T18:02:45.193Z,38.87
2022-11-30T18:05:12.109Z,39.14
2022-11-30T18:07:39.240Z,38.54
2022-11-30T18:10:06.418Z,38.35
2022-11-30T18:12:32.975Z,38.40
2022-11-30T18:14:59.698Z,37.43
2022-11-30T18:17:26.241Z,37.49
2022-11-30T18:19:53.179Z,37.76
2022-11-30T18:22:19.809Z,38.01
2022-11-30T18:24:46.530Z,38.43
2022-11-30T18:27:13.443Z,38.47
2022-11-30T18:29:40.093Z,38.13
2022-11-30T18:32:08.050Z,38.13
2022-11-30T18:34:34.637Z,39.57
2022-11-30T18:37:01.094Z,38.95
2022-11-30T18:39:27.596Z,38.99
2022-11-30T18:41:54.099Z,38.66
2022-11-30T18:44:21.429Z,38.82
2022-11-30T18:46:47.911Z,38.87
2022-11-30T18:49:14.616Z,38.75
2022-11-30T18:51:41.076Z,38.77
2022-11-30T18:54:08.043Z,38.91
2022-11-30T18:56:35.700Z,39.04
2022-11-30T18:59:04.838Z,38.98
2022-11-30T19:01:31.463Z,39.00
2022-11-30T19:04:02.717Z,39.23
2022-11-30T19:06:29.841Z,39.26
2022-11-30T19:08:56.934Z,39.46
2022-11-30T19:11:23.488Z,39.31
2022-11-30T19:13:54.447Z,39.14
2022-11-30T19:16:21.252Z,39.38
2022-11-30T19:18:48.668Z,39.33
2022-11-30T19:21:16.909Z,39.60
2022-11-30T19:23:43.415Z,39.85
2022-11-30T19:26:10.282Z,39.37
2022-11-30T19:28:37.730Z,39.41
2022-11-30T19:31:08.448Z,39.79
2022-11-30T19:33:36.416Z,40.46
2022-11-30T19:36:03.853Z,40.14
2022-11-30T19:38:30.343Z,39.92
2022-11-30T19:40:56.889Z,39.95
2022-11-30T19:43:23.342Z,40.14
2022-11-30T19:45:49.873Z,39.65
2022-11-30T19:48:16.346Z,39.60
2022-11-30T19:50:43.052Z,40.34
2022-11-30T19:53:09.501Z,39.99
2022-11-30T19:55:38.259Z,39.92
2022-11-30T19:58:04.718Z,39.84
2022-11-30T20:00:31.166Z,40.00
2022-11-30T20:02:57.674Z,40.23
2022-11-30T20:05:24.156Z,39.93
2022-11-30T20:07:50.698Z,40.10
2022-11-30T20:10:17.253Z,40.14
2022-11-30T20:12:43.744Z,40.04
2022-11-30T20:15:10.438Z,40.15
2022-11-30T20:17:36.928Z,40.48
2022-11-30T20:20:03.945Z,40.05
2022-11-30T20:22:30.538Z,40.50
2022-11-30T20:24:57.002Z,40.21
2022-11-30T20:27:24.807Z,40.52
2022-11-30T20:29:51.628Z,40.26
2022-11-30T20:32:18.561Z,40.25
2022-11-30T20:34:45.252Z,40.12
2022-11-30T20:37:12.168Z,40.38
2022-11-30T20:39:42.620Z,40.24
2022-11-30T20:42:11.931Z,40.38
2022-11-30T20:44:38.367Z,40.44
2022-11-30T20:47:04.863Z,40.57
2022-11-30T20:49:31.310Z,40.11
2022-11-30T20:51:57.811Z,40.33
2022-11-30T20:54:24.738Z,40.22
2022-11-30T20:56:51.620Z,40.54
2022-11-30T20:59:22.043Z,40.52
2022-11-30T21:01:48.637Z,40.79
2022-11-30T21:04:15.161Z,40.65
2022-11-30T21:06:45.250Z,40.92
2022-11-30T21:09:15.710Z,40.50
2022-11-30T21:11:42.283Z,39.94
2022-11-30T21:14:09.058Z,40.23
2022-11-30T21:16:35.622Z,40.22
2022-11-30T21:19:02.216Z,40.04
2022-11-30T21:21:30.869Z,39.86
2022-11-30T21:23:59.834Z,40.06
2022-11-30T21:26:28.736Z,39.73
2022-11-30T21:28:58.314Z,39.68
2022-11-30T21:31:24.912Z,39.63
2022-11-30T21:33:53.478Z,39.60
2022-11-30T21:36:20.716Z,39.30
2022-11-30T21:38:47.200Z,39.23
2022-11-30T21:41:14.051Z,39.38
2022-11-30T21:43:40.569Z,39.04
2022-11-30T21:46:10.912Z,39.01
2022-11-30T21:48:37.961Z,38.88
2022-11-30T21:51:12.540Z,37.75
2022-11-30T21:53:43.661Z,37.80
2022-11-30T21:56:14.863Z,38.00
2022-11-30T21:58:45.330Z,38.28
2022-11-30T22:01:16.579Z,38.50
2022-11-30T22:03:43.085Z,38.32
2022-11-30T22:06:13.817Z,38.41
2022-11-30T22:08:41.148Z,38.21
2022-11-30T22:11:09.473Z,38.15
2022-11-30T22:13:36.260Z,38.33
2022-11-30T22:16:04.758Z,38.72
2022-11-30T22:18:31.305Z,38.38
2022-11-30T22:21:04.721Z,38.47
2022-11-30T22:23:32.494Z,38.41
2022-11-30T22:26:31.092Z,38.41
2022-11-30T22:29:02.146Z,38.62
2022-11-30T22:31:33.157Z,38.47
2022-11-30T22:33:59.745Z,38.51
2022-11-30T22:36:30.020Z,38.76
2022-11-30T22:39:07.289Z,37.74
2022-11-30T22:41:33.768Z,37.57
2022-11-30T22:44:00.287Z,37.69
2022-11-30T22:46:31.119Z,37.60
2022-11-30T22:49:01.633Z,37.80
2022-11-30T22:51:28.942Z,38.31
2022-11-30T22:53:55.465Z,38.02
2022-11-30T22:56:26.464Z,38.21
2022-11-30T22:58:56.461Z,38.40
2022-11-30T23:01:24.600Z,38.23
2022-11-30T23:03:56.286Z,38.53
2022-11-30T23:06:23.490Z,38.52
2022-11-30T23:08:50.284Z,39.00
2022-11-30T23:11:19.393Z,38.74
2022-11-30T23:13:45.868Z,38.61
2022-11-30T23:16:12.888Z,37.71
2022-11-30T23:18:45.814Z,37.69
2022-11-30T23:21:22.973Z,37.90
2022-11-30T23:23:49.465Z,37.87
2022-11-30T23:26:23.291Z,38.05
2022-11-30T23:28:51.600Z,38.07
2022-11-30T23:31:33.993Z,38.33
2022-11-30T23:34:05.752Z,38.08
2022-11-30T23:36:33.411Z,38.38
2022-11-30T23:39:01.782Z,38.19
2022-11-30T23:41:28.277Z,38.13
2022-11-30T23:43:54.918Z,38.42
2022-11-30T23:46:21.460Z,38.14
2022-11-30T23:48:48.047Z,38.42
2022-11-30T23:51:14.525Z,38.43
2022-11-30T23:53:40.977Z,38.31
2022-11-30T23:56:08.705Z,38.20
2022-11-30T23:58:35.429Z,38.54
